Pagrindinis puslapis
METAR-TAF:

METAR-TAF

Oro uostai :

Vijayawada, Indija

platuma: 16-31-44N, ilguma: 80-47-45E, Aukštis: 25 m

Dabartinis oras

Ataskaita buvo paskelbta 29 minutes, ne 05:00 UTC
Vėjas 5 kt iš Rytų/Pietryčių
Temperatūra 28°C
Drėgmė 66%
Slėgis 1014 hPa
Matomumas: 6000 m
Mažai debesys ne aukštis 2000 ft

METAR: VOBZ 120500Z 11005KT 6000 FEW020 28/21 Q1014 NOSIG

Laikas: 10:59 (05:29 UTC)

Prognozė

Ataskaita buvo paskelbta 3 valandos ir 29 minutes, ne 02:00 UTC
Prognozė galioja nuo 12 metu 03 UTC su 12 metu 12 UTC
Vėjas 6 kt iš Rytų/Šiaurės Rytų
Matomumas: 4000 m
Mažai debesys ne aukštis 2000 ft
rūkana
Tapsmas
nuo 12 metu 04 UTC su 12 metu 06 UTC
Vėjas 8 kt iš Rytų/Pietryčių
Matomumas: 6000 m
Mažai debesys ne aukštis 2000 ft
Išsisklaidę debesys ne aukštis 2500 ft

TAF: VOBZ 120200Z 1203/1212 06006KT 4000 BR FEW020 BECMG 1204/1206 12008KT 6000 FEW020 SCT025

Orai ataskaitas ir orų prognozės (METAR, TAF).

turimą stotys yra geltonos ir raudonos taškus žemėlapyje.

Perkelti pele per norėdami pamatyti stoties vardą.

Tada spustelėkite, norėdami matyti oro stebėjimo ir prognozės.

Norėdami pakeisti žemėlapį: spustelėkite ant žalios mygtukų su juodo kryžiaus žemyn,; žalią mygtuką su brūkšneliu, jei norite nutolinti; arba žalių rodyklių gretimoms žemėlapius.


METAR-TAF: